Time;durP1;ratioP1;P1;durP2;ratioP2;P2;SDS_P1;SDS_P2;PMS_P1;PMS_P2;Temp;Humidity;BMP_temperature;BMP_pressure;BME280_temperature;BME280_humidity;BME280_pressure;Samples;Min_cycle;Max_cycle;Signal;HPM_P1;HPM_P2
2022/01/11 00:02:57;;;;;;;29.60;12.57;;;;;;;;;;6212148;23;20168;-92
2022/01/11 00:06:16;;;;;;;28.73;12.67;;;;;;;;;;6215661;23;20239;-92
2022/01/11 00:09:29;;;;;;;26.80;12.33;;;;;;;;;;6216236;23;20239;-92
2022/01/11 00:12:36;;;;;;;29.53;11.90;;;;;;;;;;6213667;23;20280;-91
2022/01/11 00:15:41;;;;;;;23.90;11.07;;;;;;;;;;6215057;23;20154;-91
2022/01/11 00:18:46;;;;;;;26.33;12.00;;;;;;;;;;6215572;23;20237;-92
2022/01/11 00:21:52;;;;;;;27.63;11.43;;;;;;;;;;6213803;23;20167;-90
2022/01/11 00:24:56;;;;;;;26.63;12.73;;;;;;;;;;6213328;23;20171;-92
2022/01/11 00:28:03;;;;;;;27.60;12.43;;;;;;;;;;6213798;23;20167;-93
2022/01/11 00:31:11;;;;;;;25.07;11.33;;;;;;;;;;6215011;23;20171;-91
2022/01/11 00:34:18;;;;;;;26.47;12.03;;;;;;;;;;6216479;23;20236;-91
2022/01/11 00:37:26;;;;;;;25.80;12.33;;;;;;;;;;6216051;23;20178;-92
2022/01/11 00:40:42;;;;;;;29.17;13.27;;;;;;;;;;6219082;23;20152;-91
2022/01/11 00:43:49;;;;;;;25.23;12.00;;;;;;;;;;6216911;23;20163;-91
2022/01/11 00:46:54;;;;;;;25.50;11.37;;;;;;;;;;6216844;23;20207;-91
2022/01/11 00:49:58;;;;;;;25.10;11.53;;;;;;;;;;6217279;23;20194;-92
2022/01/11 00:53:04;;;;;;;32.47;11.80;;;;;;;;;;6220360;23;20214;-92
2022/01/11 00:56:09;;;;;;;27.10;12.10;;;;;;;;;;6217356;23;20234;-92
2022/01/11 00:59:17;;;;;;;27.10;11.33;;;;;;;;;;6219854;23;20150;-92
2022/01/11 01:02:22;;;;;;;24.67;11.13;;;;;;;;;;6217685;23;20216;-92
2022/01/11 01:05:27;;;;;;;26.23;12.40;;;;;;;;;;6215647;23;20192;-93
2022/01/11 01:08:33;;;;;;;27.40;11.67;;;;;;;;;;6216962;23;20260;-91
2022/01/11 01:11:39;;;;;;;26.97;11.47;;;;;;;;;;6216297;23;20171;-92
2022/01/11 01:14:48;;;;;;;23.27;11.33;;;;;;;;;;6216553;23;20163;-91
2022/01/11 01:17:55;;;;;;;27.90;11.27;;;;;;;;;;6216634;23;20193;-91
2022/01/11 01:21:02;;;;;;;24.53;10.67;;;;;;;;;;6216482;23;20170;-93
2022/01/11 01:24:08;;;;;;;24.57;11.23;;;;;;;;;;6217840;23;20167;-92
2022/01/11 01:27:13;;;;;;;28.20;11.90;;;;;;;;;;6218518;23;20179;-92
2022/01/11 01:30:21;;;;;;;29.70;11.07;;;;;;;;;;6214533;23;20190;-91
2022/01/11 01:33:26;;;;;;;28.00;12.70;;;;;;;;;;6214756;23;20180;-91
2022/01/11 01:36:35;;;;;;;26.93;11.57;;;;;;;;;;6233983;23;20243;-92
2022/01/11 01:39:40;;;;;;;27.93;12.43;;;;;;;;;;6216922;23;20286;-92
2022/01/11 01:42:46;;;;;;;26.70;12.33;;;;;;;;;;6217373;23;20163;-91
2022/01/11 01:45:54;;;;;;;26.37;11.10;;;;;;;;;;6217635;23;20175;-91
2022/01/11 01:49:01;;;;;;;22.83;10.60;;;;;;;;;;6215356;23;20194;-91
2022/01/11 01:52:07;;;;;;;26.87;12.83;;;;;;;;;;6216076;23;20175;-92
2022/01/11 01:55:13;;;;;;;23.30;11.43;;;;;;;;;;6215889;23;20244;-91
2022/01/11 01:58:19;;;;;;;29.13;12.60;;;;;;;;;;6218453;23;20178;-91
2022/01/11 02:42:53;;;;;;;24.40;11.63;;;;;;;;;;6141735;23;20170;-92
2022/01/11 02:46:00;;;;;;;24.73;11.87;;;;;;;;;;6141182;23;20198;-92
2022/01/11 02:49:08;;;;;;;25.63;11.80;;;;;;;;;;6140528;23;20197;-91
2022/01/11 02:52:20;;;;;;;24.20;11.53;;;;;;;;;;6141132;23;20161;-91
2022/01/11 02:55:40;;;;;;;27.17;11.80;;;;;;;;;;6125553;23;20173;-92
2022/01/11 02:58:48;;;;;;;26.63;11.93;;;;;;;;;;6125965;23;20181;-92
2022/01/11 03:01:54;;;;;;;25.83;11.50;;;;;;;;;;6140503;23;20190;-92
2022/01/11 03:04:59;;;;;;;22.33;11.03;;;;;;;;;;6140062;23;20214;-92
2022/01/11 03:08:07;;;;;;;26.83;11.40;;;;;;;;;;6143628;23;20153;-93
2022/01/11 03:11:16;;;;;;;26.90;11.70;;;;;;;;;;6144725;23;20169;-92
2022/01/11 03:14:26;;;;;;;32.77;12.43;;;;;;;;;;6144078;23;20169;-94
2022/01/11 03:17:33;;;;;;;31.43;12.40;;;;;;;;;;6142727;23;20173;-92
2022/01/11 03:20:41;;;;;;;28.63;11.90;;;;;;;;;;6143733;23;20190;-93
2022/01/11 03:23:50;;;;;;;28.57;12.23;;;;;;;;;;6126194;23;20248;-92
2022/01/11 03:26:55;;;;;;;27.33;11.80;;;;;;;;;;6144561;23;20168;-92
2022/01/11 03:30:01;;;;;;;31.00;12.47;;;;;;;;;;6144807;23;20186;-92
2022/01/11 03:33:11;;;;;;;30.27;12.10;;;;;;;;;;6145080;23;20168;-93
2022/01/11 03:36:22;;;;;;;33.43;12.33;;;;;;;;;;6126615;23;20168;-92
2022/01/11 03:39:28;;;;;;;30.60;13.00;;;;;;;;;;6143988;23;20190;-92
2022/01/11 03:42:36;;;;;;;31.70;13.07;;;;;;;;;;6144865;23;20244;-92
2022/01/11 03:45:41;;;;;;;24.60;12.00;;;;;;;;;;6145298;23;20153;-92
2022/01/11 03:48:51;;;;;;;34.47;13.77;;;;;;;;;;6144674;23;20168;-92
2022/01/11 03:51:57;;;;;;;31.57;12.60;;;;;;;;;;6145222;23;20244;-92
2022/01/11 03:55:06;;;;;;;30.33;12.27;;;;;;;;;;6127653;23;20173;-92
2022/01/11 03:58:23;;;;;;;25.83;12.00;;;;;;;;;;6143946;23;20190;-92
2022/01/11 04:01:29;;;;;;;29.13;13.40;;;;;;;;;;6144633;23;20225;-92
2022/01/11 04:04:35;;;;;;;30.13;13.13;;;;;;;;;;6143193;23;20166;-93
2022/01/11 04:07:42;;;;;;;34.23;13.63;;;;;;;;;;6145086;23;20166;-93
2022/01/11 04:10:49;;;;;;;32.23;12.77;;;;;;;;;;6145312;23;20201;-92
2022/01/11 04:13:54;;;;;;;30.33;12.83;;;;;;;;;;6144814;23;20615;-92
2022/01/11 04:17:02;;;;;;;31.67;13.17;;;;;;;;;;6144007;23;20157;-92
2022/01/11 04:20:13;;;;;;;36.17;14.43;;;;;;;;;;6144783;23;20154;-92
2022/01/11 04:23:18;;;;;;;32.53;12.70;;;;;;;;;;6145778;23;20153;-92
2022/01/11 04:26:25;;;;;;;31.17;13.07;;;;;;;;;;6128092;23;20165;-93
2022/01/11 04:29:31;;;;;;;28.37;12.80;;;;;;;;;;6146620;23;20255;-93
2022/01/11 04:32:37;;;;;;;28.87;13.33;;;;;;;;;;6144342;23;20197;-92
2022/01/11 04:35:48;;;;;;;28.60;12.57;;;;;;;;;;6127649;23;20166;-92
2022/01/11 04:38:55;;;;;;;28.13;12.80;;;;;;;;;;6128223;23;20246;-94
2022/01/11 04:42:00;;;;;;;29.57;12.80;;;;;;;;;;6127378;23;20189;-91
2022/01/11 04:45:06;;;;;;;28.93;12.17;;;;;;;;;;6127008;23;20154;-93
2022/01/11 04:48:12;;;;;;;26.43;12.27;;;;;;;;;;6144413;23;20210;-91
2022/01/11 04:51:20;;;;;;;27.07;10.77;;;;;;;;;;6145291;23;20196;-92
2022/01/11 04:54:26;;;;;;;27.03;12.47;;;;;;;;;;6145849;23;20169;-91
2022/01/11 04:57:32;;;;;;;29.07;12.27;;;;;;;;;;6129743;23;20165;-92
2022/01/11 05:00:40;;;;;;;26.53;12.20;;;;;;;;;;6144847;23;20173;-92
2022/01/11 05:03:47;;;;;;;29.30;12.77;;;;;;;;;;6146510;23;20174;-92
2022/01/11 05:10:43;;;;;;;23.73;10.23;;;;;;;;;;6147032;23;20205;-93
2022/01/11 05:13:51;;;;;;;30.17;11.67;;;;;;;;;;6147008;23;20201;-93
2022/01/11 05:17:15;;;;;;;34.20;12.63;;;;;;;;;;6128809;23;20165;-91
2022/01/11 05:20:21;;;;;;;31.47;11.20;;;;;;;;;;6144914;23;20190;-91
2022/01/11 05:23:26;;;;;;;38.67;12.40;;;;;;;;;;6126929;23;20217;-92
2022/01/11 05:26:33;;;;;;;28.07;11.20;;;;;;;;;;6144408;23;20181;-93
2022/01/11 05:29:38;;;;;;;33.53;12.93;;;;;;;;;;6144536;23;20186;-90
2022/01/11 05:32:43;;;;;;;49.90;13.23;;;;;;;;;;6127193;23;20173;-93
2022/01/11 05:35:49;;;;;;;27.63;10.90;;;;;;;;;;6125256;23;20190;-93
2022/01/11 05:42:16;;;;;;;59.13;13.40;;;;;;;;;;6125078;23;20637;-93
2022/01/11 05:45:21;;;;;;;33.67;13.23;;;;;;;;;;6141654;23;20210;-93
2022/01/11 05:48:26;;;;;;;40.93;14.27;;;;;;;;;;6142721;23;20165;-93
2022/01/11 05:51:32;;;;;;;57.20;15.43;;;;;;;;;;6141200;23;20266;-92
2022/01/11 05:54:37;;;;;;;58.87;14.90;;;;;;;;;;6142743;23;20201;-92
2022/01/11 05:57:44;;;;;;;117.33;14.73;;;;;;;;;;6125138;23;20173;-94
2022/01/11 06:00:49;;;;;;;41.27;13.80;;;;;;;;;;6144516;23;20248;-93
2022/01/11 06:03:56;;;;;;;45.77;14.47;;;;;;;;;;6127161;23;20168;-92
2022/01/11 06:07:01;;;;;;;44.50;14.03;;;;;;;;;;6142587;23;20164;-92
2022/01/11 06:10:08;;;;;;;49.73;13.70;;;;;;;;;;6125893;23;20266;-91
2022/01/11 06:16:48;;;;;;;56.03;12.47;;;;;;;;;;6144812;23;20214;-92
2022/01/11 06:19:53;;;;;;;54.73;14.63;;;;;;;;;;6142478;23;20620;-93
2022/01/11 06:23:05;;;;;;;59.27;13.10;;;;;;;;;;6124822;23;20244;-92
2022/01/11 06:26:15;;;;;;;42.17;12.70;;;;;;;;;;6143153;23;20436;-94
2022/01/11 06:29:20;;;;;;;38.07;13.00;;;;;;;;;;6142841;23;20222;-93
2022/01/11 06:32:27;;;;;;;38.90;12.77;;;;;;;;;;6142896;23;20230;-93
2022/01/11 06:35:33;;;;;;;34.57;10.90;;;;;;;;;;6144148;23;20524;-92
2022/01/11 06:38:39;;;;;;;18.03;6.87;;;;;;;;;;6147297;23;20218;-92
2022/01/11 06:41:44;;;;;;;62.37;14.60;;;;;;;;;;6138587;23;20189;-93
2022/01/11 06:44:53;;;;;;;46.67;12.37;;;;;;;;;;6161825;23;20173;-93
2022/01/11 06:51:32;;;;;;;40.47;13.37;;;;;;;;;;6146614;23;20220;-92
2022/01/11 06:54:37;;;;;;;29.90;11.97;;;;;;;;;;6162207;23;20260;-93
2022/01/11 06:57:42;;;;;;;44.33;11.83;;;;;;;;;;6163952;23;20173;-92
2022/01/11 07:04:11;;;;;;;29.23;12.50;;;;;;;;;;6146941;23;20237;-93
2022/01/11 07:07:25;;;;;;;28.47;12.67;;;;;;;;;;6161274;23;20184;-93
2022/01/11 07:10:30;;;;;;;42.20;12.23;;;;;;;;;;6162329;23;20200;-92
2022/01/11 07:13:35;;;;;;;34.57;11.93;;;;;;;;;;6161096;23;20185;-92
2022/01/11 07:16:43;;;;;;;28.00;11.63;;;;;;;;;;6143887;23;20213;-93
2022/01/11 07:19:50;;;;;;;24.70;11.50;;;;;;;;;;6163667;23;20189;-91
2022/01/11 07:22:56;;;;;;;35.87;12.57;;;;;;;;;;6162135;23;20206;-93
2022/01/11 07:26:01;;;;;;;26.37;11.20;;;;;;;;;;6146075;23;20156;-93
2022/01/11 07:29:08;;;;;;;39.13;12.33;;;;;;;;;;6143422;23;20165;-93
2022/01/11 07:32:14;;;;;;;53.23;12.57;;;;;;;;;;6163508;23;20217;-92
2022/01/11 07:35:23;;;;;;;26.90;11.30;;;;;;;;;;6162107;23;20189;-91
2022/01/11 07:38:31;;;;;;;30.17;10.80;;;;;;;;;;6144071;23;20193;-93
2022/01/11 07:41:38;;;;;;;33.50;11.77;;;;;;;;;;6159838;23;20180;-92
2022/01/11 07:44:54;;;;;;;31.70;11.60;;;;;;;;;;6160380;23;20157;-92
2022/01/11 07:48:01;;;;;;;34.83;11.23;;;;;;;;;;6142284;23;20193;-93
2022/01/11 07:51:08;;;;;;;40.43;11.37;;;;;;;;;;6162123;23;20237;-93
2022/01/11 07:54:19;;;;;;;27.57;11.90;;;;;;;;;;6145781;23;20169;-91
2022/01/11 07:57:26;;;;;;;29.00;11.30;;;;;;;;;;6161668;23;20194;-93
2022/01/11 08:00:32;;;;;;;39.63;11.13;;;;;;;;;;6145056;23;20534;-93
2022/01/11 08:03:37;;;;;;;27.00;11.77;;;;;;;;;;6146943;23;20182;-93
2022/01/11 08:06:53;;;;;;;28.60;11.67;;;;;;;;;;6146081;23;20218;-93
2022/01/11 08:10:18;;;;;;;28.70;11.00;;;;;;;;;;6144288;23;20303;-91
2022/01/11 08:13:24;;;;;;;25.23;10.07;;;;;;;;;;6159384;23;20170;-91
2022/01/11 08:16:30;;;;;;;25.37;10.80;;;;;;;;;;6162417;23;20158;-92
2022/01/11 08:19:36;;;;;;;25.00;10.03;;;;;;;;;;6142512;23;20165;-92
2022/01/11 08:22:48;;;;;;;24.40;10.83;;;;;;;;;;6145178;23;20176;-92
2022/01/11 08:25:53;;;;;;;26.93;10.27;;;;;;;;;;6161745;23;20193;-93
2022/01/11 08:28:59;;;;;;;28.07;11.13;;;;;;;;;;6163926;23;20177;-93
2022/01/11 09:30:52;;;;;;;25.70;11.63;;;;;;;;;;6217718;22;20195;-92
2022/01/11 10:15:50;;;;;;;23.47;10.67;;;;;;;;;;6221126;23;20163;-90
2022/01/11 10:26:10;;;;;;;33.00;14.13;;;;;;;;;;6220909;23;20713;-90
2022/01/11 10:29:26;;;;;;;39.37;15.43;;;;;;;;;;6217934;23;20250;-92
2022/01/11 10:32:37;;;;;;;39.97;16.13;;;;;;;;;;6217491;23;20202;-92
2022/01/11 10:35:52;;;;;;;31.10;13.03;;;;;;;;;;6215875;23;20170;-91
2022/01/11 10:39:20;;;;;;;29.40;13.17;;;;;;;;;;6217346;23;20164;-90
2022/01/11 10:42:27;;;;;;;35.80;14.13;;;;;;;;;;6218203;23;20337;-92
2022/01/11 10:45:35;;;;;;;28.37;12.67;;;;;;;;;;6217949;23;20155;-92
2022/01/11 10:48:43;;;;;;;27.77;12.37;;;;;;;;;;6221844;23;20171;-91
2022/01/11 11:07:58;;;;;;;25.87;11.33;;;;;;;;;;6205886;22;20340;-92
2022/01/11 11:11:04;;;;;;;19.40;10.00;;;;;;;;;;6217371;23;20198;-92
2022/01/11 11:14:10;;;;;;;20.67;9.63;;;;;;;;;;6216669;23;20214;-92
2022/01/11 11:17:30;;;;;;;26.87;11.57;;;;;;;;;;6215382;23;20210;-91
2022/01/11 11:20:38;;;;;;;26.13;12.17;;;;;;;;;;6216729;23;20203;-91
2022/01/11 11:27:05;;;;;;;20.83;10.07;;;;;;;;;;6216991;23;20171;-91
2022/01/11 11:30:12;;;;;;;22.70;10.30;;;;;;;;;;6217837;23;20160;-93
2022/01/11 11:33:18;;;;;;;20.80;9.13;;;;;;;;;;6217319;23;20515;-91
2022/01/11 11:36:24;;;;;;;16.97;8.83;;;;;;;;;;6216743;23;20171;-91
2022/01/11 11:39:34;;;;;;;20.53;9.67;;;;;;;;;;6217666;23;20208;-91
2022/01/11 11:42:40;;;;;;;22.47;9.13;;;;;;;;;;6216744;23;20165;-92
2022/01/11 11:49:13;;;;;;;17.90;9.27;;;;;;;;;;6217761;23;20187;-92
2022/01/11 11:52:20;;;;;;;19.00;8.70;;;;;;;;;;6217274;23;20250;-92
2022/01/11 11:55:28;;;;;;;20.23;9.13;;;;;;;;;;6217518;23;20172;-91
2022/01/11 11:58:41;;;;;;;19.97;9.57;;;;;;;;;;6217000;23;20163;-90
2022/01/11 12:01:50;;;;;;;19.53;9.20;;;;;;;;;;6217402;23;20155;-92
2022/01/11 12:38:06;;;;;;;12.13;5.27;;;;;;;;;;6131154;23;20185;-92
2022/01/11 12:41:25;;;;;;;11.60;5.10;;;;;;;;;;6147078;23;20169;-92
2022/01/11 15:22:52;;;;;;;34.83;10.27;;;;;;;;;;6165042;22;20188;-90
2022/01/11 15:25:58;;;;;;;26.23;9.97;;;;;;;;;;6247372;22;20209;-90
2022/01/11 15:29:05;;;;;;;23.90;10.07;;;;;;;;;;6247530;22;20154;-91
2022/01/11 15:32:10;;;;;;;24.33;9.07;;;;;;;;;;6248228;22;20613;-91
2022/01/11 15:35:16;;;;;;;20.77;9.20;;;;;;;;;;6248392;22;20201;-90
2022/01/11 15:38:23;;;;;;;18.57;8.63;;;;;;;;;;6247599;22;20162;-91
2022/01/11 15:44:53;;;;;;;27.63;8.97;;;;;;;;;;6247615;23;20178;-91
2022/01/11 15:47:58;;;;;;;20.13;9.17;;;;;;;;;;6248031;22;20213;-91
2022/01/11 15:51:03;;;;;;;23.47;10.23;;;;;;;;;;6246243;22;20198;-89
2022/01/11 15:54:11;;;;;;;23.47;9.70;;;;;;;;;;6248730;23;20182;-91
2022/01/11 15:57:16;;;;;;;25.57;9.37;;;;;;;;;;6247611;23;20194;-91
2022/01/11 16:00:25;;;;;;;23.27;9.33;;;;;;;;;;6247499;22;20178;-92
2022/01/11 16:03:32;;;;;;;21.40;9.13;;;;;;;;;;6249839;23;20174;-90
2022/01/11 16:10:03;;;;;;;29.33;12.13;;;;;;;;;;6249045;23;20170;-90
2022/01/11 16:16:33;;;;;;;20.00;8.50;;;;;;;;;;6250720;22;20166;-92
2022/01/11 16:19:41;;;;;;;20.47;9.90;;;;;;;;;;6252074;23;20190;-92
2022/01/11 16:22:47;;;;;;;28.67;10.47;;;;;;;;;;6249589;22;20224;-92
2022/01/11 17:45:15;;;;;;;29.80;12.27;;;;;;;;;;6202802;22;20215;-90
2022/01/11 19:28:13;;;;;;;22.50;10.47;;;;;;;;;;6208581;22;20237;-93
2022/01/11 19:31:24;;;;;;;30.83;11.37;;;;;;;;;;6217907;23;20197;-89
2022/01/11 19:34:32;;;;;;;30.77;12.57;;;;;;;;;;6217996;23;20151;-89
2022/01/11 19:37:40;;;;;;;26.93;11.77;;;;;;;;;;6217902;23;20615;-90
2022/01/11 19:40:46;;;;;;;29.27;11.90;;;;;;;;;;6217469;23;20167;-91
2022/01/11 19:43:53;;;;;;;30.70;12.83;;;;;;;;;;6217021;23;20168;-91
2022/01/11 19:46:59;;;;;;;28.83;12.23;;;;;;;;;;6218678;23;20155;-91
2022/01/11 19:50:06;;;;;;;29.50;11.97;;;;;;;;;;6218171;23;20199;-90
2022/01/11 19:53:11;;;;;;;32.13;11.73;;;;;;;;;;6218305;23;20199;-90
2022/01/11 19:56:16;;;;;;;31.17;12.13;;;;;;;;;;6216219;23;20168;-91
2022/01/11 19:59:24;;;;;;;28.37;11.43;;;;;;;;;;6216557;23;20617;-90
2022/01/11 20:02:30;;;;;;;30.77;11.60;;;;;;;;;;6218012;23;20262;-90
2022/01/11 20:05:36;;;;;;;29.93;12.17;;;;;;;;;;6216759;23;20204;-90
2022/01/11 20:08:41;;;;;;;31.97;11.73;;;;;;;;;;6217424;23;20210;-91
2022/01/11 20:11:48;;;;;;;26.03;11.33;;;;;;;;;;6219452;23;20191;-89
2022/01/11 20:15:09;;;;;;;31.63;11.87;;;;;;;;;;6218388;23;20149;-92
2022/01/11 20:18:27;;;;;;;30.47;11.73;;;;;;;;;;6221476;23;20163;-88
2022/01/11 20:46:22;;;;;;;30.50;12.13;;;;;;;;;;6182749;22;20195;-91
2022/01/11 20:49:34;;;;;;;31.13;11.87;;;;;;;;;;6217205;23;20250;-92
2022/01/11 20:52:47;;;;;;;26.67;11.27;;;;;;;;;;6217771;23;20197;-90
2022/01/11 20:55:54;;;;;;;34.97;12.37;;;;;;;;;;6220208;23;20174;-87
2022/01/11 20:58:59;;;;;;;28.03;11.77;;;;;;;;;;6220005;23;20163;-91
2022/01/11 21:02:08;;;;;;;30.87;12.37;;;;;;;;;;6219344;23;20155;-90
2022/01/11 21:08:33;;;;;;;29.57;11.53;;;;;;;;;;6218616;23;20171;-90
2022/01/11 21:11:40;;;;;;;31.00;11.80;;;;;;;;;;6217955;23;20230;-91
2022/01/11 21:14:50;;;;;;;30.63;12.30;;;;;;;;;;6215682;23;20625;-90
2022/01/11 21:21:25;;;;;;;32.70;13.20;;;;;;;;;;6218908;23;20166;-90
2022/01/11 21:53:59;;;;;;;34.87;12.87;;;;;;;;;;6220198;22;20211;-91
2022/01/11 21:57:05;;;;;;;34.87;12.40;;;;;;;;;;6215565;23;20237;-90
2022/01/11 22:00:13;;;;;;;37.50;13.20;;;;;;;;;;6217139;23;20158;-90
2022/01/11 22:03:18;;;;;;;32.60;13.03;;;;;;;;;;6219290;23;20171;-90
2022/01/11 22:06:26;;;;;;;31.40;12.87;;;;;;;;;;6218703;23;20195;-89
2022/01/11 22:09:36;;;;;;;32.90;12.40;;;;;;;;;;6220704;23;20239;-89
2022/01/11 22:12:43;;;;;;;37.10;13.30;;;;;;;;;;6217156;23;20199;-90
2022/01/11 22:16:18;;;;;;;33.97;12.53;;;;;;;;;;6217346;23;20150;-89
2022/01/11 22:19:28;;;;;;;39.73;14.37;;;;;;;;;;6220091;23;20172;-90
2022/01/11 22:22:33;;;;;;;35.70;14.20;;;;;;;;;;6220433;23;20234;-90
2022/01/11 23:01:03;;;;;;;37.67;13.27;;;;;;;;;;6183246;22;20677;-90
2022/01/11 23:08:03;;;;;;;30.83;12.87;;;;;;;;;;6218872;23;20156;-92
2022/01/11 23:11:11;;;;;;;38.33;14.27;;;;;;;;;;6218456;23;20194;-90
2022/01/11 23:17:45;;;;;;;33.17;12.83;;;;;;;;;;6219379;23;20175;-91
2022/01/11 23:20:51;;;;;;;36.37;12.73;;;;;;;;;;6217471;23;20186;-92
2022/01/11 23:23:57;;;;;;;34.97;12.90;;;;;;;;;;6219462;23;20167;-90
2022/01/11 23:27:03;;;;;;;34.73;13.57;;;;;;;;;;6220439;23;20183;-89
2022/01/11 23:30:11;;;;;;;35.47;12.50;;;;;;;;;;6219120;23;20194;-90
2022/01/11 23:33:18;;;;;;;32.63;12.93;;;;;;;;;;6218779;23;20274;-91
2022/01/11 23:36:28;;;;;;;34.80;12.67;;;;;;;;;;6218842;23;20214;-92
2022/01/11 23:43:34;;;;;;;35.17;12.67;;;;;;;;;;6193729;23;20263;-90
2022/01/11 23:50:06;;;;;;;39.47;13.33;;;;;;;;;;6223151;23;20167;-90
2022/01/11 23:53:12;;;;;;;33.83;13.00;;;;;;;;;;6205374;22;20261;-90
2022/01/11 23:56:18;;;;;;;37.27;13.53;;;;;;;;;;6190347;23;20171;-88
2022/01/11 23:59:25;;;;;;;37.37;13.30;;;;;;;;;;6190211;23;20176;-90
